createdAt,value
2023-03-27T00:01:17.934Z,4.70
2023-03-27T00:03:49.282Z,4.70
2023-03-27T00:06:18.361Z,4.70
2023-03-27T00:08:47.130Z,4.60
2023-03-27T00:11:14.740Z,4.60
2023-03-27T00:13:49.393Z,4.70
2023-03-27T00:16:18.965Z,4.50
2023-03-27T00:18:45.901Z,4.50
2023-03-27T00:21:12.756Z,4.70
2023-03-27T00:23:40.399Z,4.60
2023-03-27T00:26:07.365Z,4.70
2023-03-27T00:28:35.431Z,4.70
2023-03-27T00:31:02.521Z,4.70
2023-03-27T00:33:29.616Z,4.80
2023-03-27T00:35:56.386Z,4.50
2023-03-27T00:38:24.245Z,4.40
2023-03-27T00:40:53.525Z,4.20
2023-03-27T00:43:34.860Z,4.40
2023-03-27T00:46:39.769Z,4.40
2023-03-27T00:49:09.799Z,4.40
2023-03-27T00:51:39.246Z,4.30
2023-03-27T00:54:07.056Z,4.30
2023-03-27T00:56:34.530Z,4.20
2023-03-27T00:59:04.623Z,4.20
2023-03-27T01:01:32.116Z,4.20
2023-03-27T01:04:02.717Z,4.20
2023-03-27T01:06:30.466Z,4.20
2023-03-27T01:08:57.213Z,4.10
2023-03-27T01:11:29.416Z,4.00
2023-03-27T01:14:01.870Z,4.00
2023-03-27T01:16:33.070Z,4.20
2023-03-27T01:19:26.221Z,4.20
2023-03-27T01:22:21.954Z,4.20
2023-03-27T01:25:30.588Z,4.20
2023-03-27T01:27:58.469Z,4.20
2023-03-27T01:30:38.413Z,4.10
2023-03-27T01:33:45.532Z,4.00
2023-03-27T01:36:23.752Z,3.90
2023-03-27T01:39:08.853Z,3.90
2023-03-27T01:41:46.483Z,3.90
2023-03-27T01:44:27.386Z,3.90
2023-03-27T01:47:19.685Z,4.00
2023-03-27T01:50:16.845Z,4.10
2023-03-27T01:52:52.822Z,3.90
2023-03-27T01:55:24.110Z,3.90
2023-03-27T01:58:00.589Z,3.70
2023-03-27T02:00:29.106Z,3.90
2023-03-27T02:03:23.867Z,3.90
2023-03-27T02:06:00.618Z,3.90
2023-03-27T02:08:41.928Z,3.90
2023-03-27T02:11:09.040Z,4.00
2023-03-27T02:13:41.856Z,4.00
2023-03-27T02:16:13.593Z,3.90
2023-03-27T02:18:47.704Z,3.90
2023-03-27T02:21:15.378Z,3.90
2023-03-27T02:23:43.444Z,3.80
2023-03-27T02:26:12.959Z,3.80
2023-03-27T02:29:10.880Z,3.70
2023-03-27T02:32:07.781Z,3.60
2023-03-27T02:35:02.998Z,3.60
2023-03-27T02:37:51.508Z,3.70
2023-03-27T02:40:39.799Z,3.80
2023-03-27T02:43:14.342Z,3.70
2023-03-27T02:45:41.033Z,3.60
2023-03-27T02:48:35.391Z,2.30
2023-03-27T02:51:07.891Z,3.60
2023-03-27T02:53:45.611Z,3.60
2023-03-27T02:56:14.863Z,3.60
2023-03-27T02:58:49.963Z,3.60
2023-03-27T03:01:19.468Z,3.50
2023-03-27T03:03:53.628Z,3.50
2023-03-27T03:06:22.031Z,3.30
2023-03-27T03:08:49.386Z,3.30
2023-03-27T03:11:16.073Z,3.40
2023-03-27T03:13:43.107Z,3.40
2023-03-27T03:16:10.228Z,3.40
2023-03-27T03:18:37.990Z,3.30
2023-03-27T03:21:05.686Z,3.40
2023-03-27T03:23:32.350Z,3.30
2023-03-27T03:25:58.928Z,3.40
2023-03-27T03:28:28.502Z,3.20
2023-03-27T03:30:58.865Z,3.30
2023-03-27T03:33:27.973Z,3.30
2023-03-27T03:35:54.766Z,3.30
2023-03-27T03:38:24.814Z,3.30
2023-03-27T03:40:56.020Z,3.30
2023-03-27T03:43:25.129Z,3.30
2023-03-27T03:45:52.436Z,3.20
2023-03-27T03:48:20.525Z,3.20
2023-03-27T03:50:48.642Z,3.40
2023-03-27T03:53:16.983Z,3.30
2023-03-27T03:55:44.973Z,3.30
2023-03-27T03:58:12.147Z,3.30
2023-03-27T04:00:39.978Z,3.30
2023-03-27T04:03:08.648Z,3.30
2023-03-27T04:05:37.141Z,3.30
2023-03-27T04:08:07.202Z,3.40
2023-03-27T04:10:35.829Z,3.30
2023-03-27T04:13:02.568Z,3.40
2023-03-27T04:15:29.288Z,3.30
2023-03-27T04:17:57.665Z,3.30
2023-03-27T04:20:27.260Z,3.40
2023-03-27T04:22:54.668Z,3.40
2023-03-27T04:25:23.902Z,3.50
2023-03-27T04:27:51.331Z,3.50
2023-03-27T04:30:23.164Z,3.60
2023-03-27T04:32:51.358Z,3.60
2023-03-27T04:35:19.384Z,3.60
2023-03-27T04:37:47.772Z,3.60
2023-03-27T04:40:18.088Z,3.60
2023-03-27T04:42:45.071Z,3.60
2023-03-27T04:45:14.389Z,3.50
2023-03-27T04:47:41.125Z,3.50
2023-03-27T04:50:08.890Z,3.50
2023-03-27T04:52:35.632Z,3.40
2023-03-27T04:55:04.769Z,3.40
2023-03-27T04:57:32.956Z,3.40
2023-03-27T05:00:00.340Z,3.40
2023-03-27T05:02:28.019Z,3.40
2023-03-27T05:05:02.072Z,3.40
2023-03-27T05:07:28.720Z,3.30
2023-03-27T05:09:57.223Z,3.50
2023-03-27T05:12:23.850Z,3.20
2023-03-27T05:14:50.808Z,3.20
2023-03-27T05:17:17.553Z,3.30
2023-03-27T05:19:44.786Z,3.10
2023-03-27T05:22:11.681Z,3.20
2023-03-27T05:24:38.993Z,3.20
2023-03-27T05:27:05.831Z,3.20
2023-03-27T05:29:46.698Z,4.20
2023-03-27T05:32:14.356Z,5.00
2023-03-27T05:34:42.295Z,4.50
2023-03-27T05:37:08.963Z,3.80
2023-03-27T05:39:36.662Z,3.40
2023-03-27T05:42:03.539Z,3.40
2023-03-27T05:44:30.152Z,3.30
2023-03-27T05:46:56.812Z,3.30
2023-03-27T05:49:23.476Z,3.40
2023-03-27T05:51:50.856Z,3.30
2023-03-27T05:54:17.499Z,3.40
2023-03-27T05:56:44.209Z,3.50
2023-03-27T05:59:10.881Z,3.50
2023-03-27T06:01:37.637Z,3.90
2023-03-27T06:04:04.435Z,3.90
2023-03-27T06:06:32.757Z,3.80
2023-03-27T06:08:59.474Z,3.70
2023-03-27T06:11:26.170Z,3.60
2023-03-27T06:13:52.937Z,3.70
2023-03-27T06:16:20.882Z,3.90
2023-03-27T06:18:47.937Z,3.80
2023-03-27T06:21:14.667Z,3.90
2023-03-27T06:23:41.574Z,3.80
2023-03-27T06:26:08.311Z,4.00
2023-03-27T06:28:34.950Z,3.90
2023-03-27T06:31:01.647Z,3.90
2023-03-27T06:33:29.504Z,4.60
2023-03-27T06:36:00.760Z,4.00
2023-03-27T06:38:30.942Z,4.10
2023-03-27T06:40:59.708Z,4.10
2023-03-27T06:43:26.664Z,4.20
2023-03-27T06:45:53.315Z,4.10
2023-03-27T06:48:22.427Z,4.10
2023-03-27T06:50:51.354Z,4.30
2023-03-27T06:53:27.423Z,4.50
2023-03-27T06:55:56.245Z,4.50
2023-03-27T06:58:23.436Z,4.40
2023-03-27T07:00:51.111Z,4.10
2023-03-27T07:03:20.553Z,3.80
2023-03-27T07:05:48.965Z,3.70
2023-03-27T07:08:24.291Z,3.60
2023-03-27T07:11:07.481Z,3.60
2023-03-27T07:13:37.420Z,3.60
2023-03-27T07:16:04.488Z,3.70
2023-03-27T07:18:31.276Z,3.90
2023-03-27T07:20:58.133Z,4.20
2023-03-27T07:23:24.990Z,4.40
2023-03-27T07:25:52.168Z,4.50
2023-03-27T07:28:19.392Z,4.50
2023-03-27T07:30:46.357Z,4.70
2023-03-27T07:33:13.371Z,4.80
2023-03-27T07:35:45.316Z,4.30
2023-03-27T07:38:12.645Z,5.00
2023-03-27T07:40:40.748Z,5.10
2023-03-27T07:43:07.816Z,5.20
2023-03-27T07:45:35.935Z,5.00
2023-03-27T07:48:11.428Z,4.90
2023-03-27T07:50:38.097Z,4.90
2023-03-27T07:53:06.283Z,4.90
2023-03-27T07:55:34.423Z,5.10
2023-03-27T07:58:03.359Z,5.10
2023-03-27T08:00:32.439Z,5.10
2023-03-27T08:03:07.787Z,5.20
2023-03-27T08:05:35.464Z,5.30
2023-03-27T08:08:02.175Z,5.40
2023-03-27T08:10:28.843Z,5.50
2023-03-27T08:12:55.591Z,5.60
2023-03-27T08:15:25.039Z,5.60
2023-03-27T08:17:54.656Z,5.80
2023-03-27T08:20:23.671Z,5.20
2023-03-27T08:22:52.464Z,5.80
2023-03-27T08:25:19.834Z,5.80
2023-03-27T08:27:46.671Z,5.70
2023-03-27T08:30:16.729Z,5.30
2023-03-27T08:32:44.164Z,5.40
2023-03-27T08:35:11.041Z,5.40
2023-03-27T08:37:38.032Z,5.40
2023-03-27T08:40:13.720Z,5.40
2023-03-27T08:42:43.883Z,5.60
2023-03-27T08:45:26.157Z,5.80
2023-03-27T08:48:00.393Z,5.90
2023-03-27T08:50:48.127Z,6.00
2023-03-27T08:53:29.440Z,5.80
2023-03-27T08:55:56.754Z,5.70
2023-03-27T08:58:23.582Z,5.60
2023-03-27T09:01:04.628Z,5.70
2023-03-27T09:03:38.811Z,5.80
2023-03-27T09:06:28.231Z,6.10
2023-03-27T09:09:18.359Z,6.30
2023-03-27T09:12:00.281Z,6.20
2023-03-27T09:14:36.237Z,6.30
2023-03-27T09:17:12.078Z,6.40
2023-03-27T09:19:55.516Z,6.10
2023-03-27T09:22:27.531Z,6.00
2023-03-27T09:24:57.921Z,6.00
2023-03-27T09:27:29.305Z,6.00
2023-03-27T09:30:08.366Z,6.00
2023-03-27T09:32:35.152Z,6.10
2023-03-27T09:35:01.813Z,6.20
2023-03-27T09:37:28.497Z,6.30
2023-03-27T09:39:58.778Z,6.20
2023-03-27T09:42:33.195Z,6.10
2023-03-27T09:45:03.626Z,6.10
2023-03-27T09:48:02.351Z,6.30
2023-03-27T09:50:41.366Z,6.60
2023-03-27T09:53:18.199Z,6.30
2023-03-27T09:55:50.514Z,6.50
2023-03-27T09:58:35.697Z,6.60
2023-03-27T10:01:16.066Z,6.40
2023-03-27T10:03:49.040Z,6.30
2023-03-27T10:06:27.099Z,6.40
2023-03-27T10:08:55.955Z,6.70
2023-03-27T10:11:27.378Z,7.00
2023-03-27T10:13:54.730Z,7.20
2023-03-27T10:16:22.758Z,7.30
2023-03-27T10:18:55.056Z,7.10
2023-03-27T10:21:38.345Z,6.90
2023-03-27T10:24:27.071Z,6.80
2023-03-27T10:26:54.414Z,6.80
2023-03-27T10:29:25.524Z,6.60
2023-03-27T10:31:56.649Z,6.60
2023-03-27T10:34:38.446Z,6.50
2023-03-27T10:37:26.564Z,6.30
2023-03-27T10:39:55.003Z,6.10
2023-03-27T10:42:22.842Z,6.10
2023-03-27T10:44:49.802Z,5.50
2023-03-27T10:47:21.320Z,4.90
2023-03-27T10:50:14.600Z,4.40
2023-03-27T10:53:00.233Z,4.00
2023-03-27T10:55:44.566Z,3.80
2023-03-27T10:58:27.051Z,3.80
2023-03-27T11:01:15.091Z,3.70
2023-03-27T11:03:51.418Z,3.90
2023-03-27T11:06:20.741Z,4.40
2023-03-27T11:09:16.090Z,4.40
2023-03-27T11:11:49.034Z,4.60
2023-03-27T11:14:38.747Z,4.90
2023-03-27T11:17:08.667Z,5.00
2023-03-27T11:19:42.987Z,5.10
2023-03-27T11:22:37.429Z,5.40
2023-03-27T11:25:12.216Z,5.30
2023-03-27T11:27:45.558Z,5.60
2023-03-27T11:30:18.260Z,5.60
2023-03-27T11:33:07.411Z,5.80
2023-03-27T11:35:39.321Z,6.00
2023-03-27T11:38:28.722Z,6.40
2023-03-27T11:40:56.696Z,6.40
2023-03-27T11:43:24.672Z,6.20
2023-03-27T11:46:09.952Z,6.10
2023-03-27T11:48:50.819Z,6.00
2023-03-27T11:51:32.960Z,6.00
2023-03-27T11:54:08.451Z,5.00
2023-03-27T11:56:35.095Z,4.40
2023-03-27T11:59:07.511Z,3.80
2023-03-27T12:01:41.008Z,3.50
2023-03-27T12:04:22.572Z,3.60
2023-03-27T12:07:11.753Z,3.70
2023-03-27T12:10:02.634Z,3.90
2023-03-27T12:12:37.902Z,4.10
2023-03-27T12:15:28.854Z,4.40
2023-03-27T12:18:05.581Z,4.60
2023-03-27T12:20:52.883Z,4.80
2023-03-27T12:23:37.658Z,4.90
2023-03-27T12:26:18.726Z,5.00
2023-03-27T12:28:58.588Z,5.00
2023-03-27T12:31:59.446Z,5.20
2023-03-27T12:34:50.959Z,5.60
2023-03-27T12:37:22.141Z,5.90
2023-03-27T12:39:56.242Z,5.90
2023-03-27T12:42:43.694Z,6.10
2023-03-27T12:45:23.820Z,6.30
2023-03-27T12:48:17.660Z,6.30
2023-03-27T12:50:44.301Z,6.40
2023-03-27T12:53:26.067Z,6.20
2023-03-27T12:56:16.530Z,6.10
2023-03-27T12:58:52.304Z,5.90
2023-03-27T13:01:51.546Z,5.60
2023-03-27T13:04:47.761Z,5.50
2023-03-27T13:07:38.093Z,5.60
2023-03-27T13:10:33.286Z,5.70
2023-03-27T13:13:25.287Z,5.70
2023-03-27T13:16:05.743Z,5.70
2023-03-27T13:18:52.277Z,5.60
2023-03-27T13:21:43.743Z,5.30
2023-03-27T13:24:35.987Z,5.20
2023-03-27T13:27:20.059Z,5.10
2023-03-27T13:29:51.795Z,5.00
2023-03-27T13:32:37.142Z,5.10
2023-03-27T13:35:21.630Z,6.50
2023-03-27T13:37:51.721Z,5.40
2023-03-27T13:40:44.488Z,5.60
2023-03-27T13:43:21.662Z,5.60
2023-03-27T13:45:54.326Z,5.90
2023-03-27T13:49:15.757Z,6.10
2023-03-27T13:52:08.765Z,6.30
2023-03-27T13:54:57.030Z,6.30
2023-03-27T13:58:17.910Z,6.50
2023-03-27T14:00:52.970Z,6.30
2023-03-27T14:03:28.413Z,6.50
2023-03-27T14:06:40.099Z,6.70
2023-03-27T14:09:30.193Z,6.80
2023-03-27T14:12:20.167Z,6.80
2023-03-27T14:14:52.496Z,7.00
2023-03-27T14:17:51.206Z,7.10
2023-03-27T14:20:45.264Z,7.20
2023-03-27T14:23:16.467Z,7.30
2023-03-27T14:25:49.123Z,7.50
2023-03-27T14:28:45.724Z,7.40
2023-03-27T14:31:18.775Z,7.20
2023-03-27T14:34:03.152Z,6.90
2023-03-27T14:36:33.880Z,6.90
2023-03-27T14:39:17.936Z,7.10
2023-03-27T14:42:02.647Z,7.40
2023-03-27T14:44:32.821Z,7.50
2023-03-27T14:47:04.137Z,7.10
2023-03-27T14:49:38.753Z,6.80
2023-03-27T14:52:07.751Z,6.90
2023-03-27T14:54:44.586Z,7.40
2023-03-27T14:57:15.623Z,8.00
2023-03-27T14:59:43.989Z,7.80
2023-03-27T15:02:26.644Z,8.10
2023-03-27T15:05:00.932Z,8.30
2023-03-27T15:07:33.193Z,8.10
2023-03-27T15:10:05.526Z,8.00
2023-03-27T15:12:36.033Z,7.70
2023-03-27T15:15:04.138Z,7.50
2023-03-27T15:17:34.514Z,7.30
2023-03-27T15:20:14.303Z,7.30
2023-03-27T15:22:44.998Z,7.40
2023-03-27T15:25:21.437Z,7.60
2023-03-27T15:27:53.053Z,7.80
2023-03-27T15:30:33.465Z,7.80
2023-03-27T15:33:04.420Z,7.70
2023-03-27T15:35:37.237Z,7.30
2023-03-27T15:38:06.412Z,7.10
2023-03-27T15:40:42.765Z,7.00
2023-03-27T15:43:12.411Z,6.90
2023-03-27T15:45:56.710Z,6.80
2023-03-27T15:48:30.722Z,6.70
2023-03-27T15:51:06.206Z,6.60
2023-03-27T15:53:37.414Z,6.40
2023-03-27T15:56:22.051Z,6.50
2023-03-27T15:58:59.149Z,6.60
2023-03-27T16:01:32.167Z,6.60
2023-03-27T16:04:15.767Z,6.70
2023-03-27T16:06:46.758Z,6.70
2023-03-27T16:09:27.137Z,6.70
2023-03-27T16:11:55.744Z,6.70
2023-03-27T16:14:40.765Z,6.90
2023-03-27T16:17:12.387Z,6.70
2023-03-27T16:19:59.915Z,6.70
2023-03-27T16:22:34.585Z,6.90
2023-03-27T16:25:05.506Z,7.00
2023-03-27T16:27:36.437Z,7.00
2023-03-27T16:30:07.940Z,7.00
2023-03-27T16:32:35.677Z,6.90
2023-03-27T16:35:02.463Z,6.80
2023-03-27T16:37:29.312Z,6.70
2023-03-27T16:39:56.021Z,6.60
2023-03-27T16:42:26.316Z,6.50
2023-03-27T16:44:53.200Z,6.30
2023-03-27T16:47:20.574Z,6.30
2023-03-27T16:49:56.250Z,6.30
2023-03-27T16:52:34.331Z,6.20
2023-03-27T16:55:01.982Z,6.30
2023-03-27T16:57:28.894Z,6.20
2023-03-27T16:59:55.752Z,6.20
2023-03-27T17:02:25.419Z,6.00
2023-03-27T17:04:52.219Z,5.80
2023-03-27T17:07:18.837Z,5.50
2023-03-27T17:09:45.820Z,5.40
2023-03-27T17:12:12.482Z,5.20
2023-03-27T17:14:39.196Z,5.20
2023-03-27T17:17:05.883Z,5.20
2023-03-27T17:19:32.577Z,5.20
2023-03-27T17:21:59.215Z,5.20
2023-03-27T17:24:25.936Z,5.20
2023-03-27T17:26:52.539Z,5.30
2023-03-27T17:29:19.390Z,4.90
2023-03-27T17:31:46.149Z,4.90
2023-03-27T17:34:13.142Z,4.90
2023-03-27T17:36:45.302Z,4.80
2023-03-27T17:39:19.228Z,4.80
2023-03-27T17:41:45.860Z,4.80
2023-03-27T17:44:12.927Z,5.80
2023-03-27T17:46:39.592Z,4.60
2023-03-27T17:49:06.356Z,4.60
2023-03-27T17:51:34.308Z,4.70
2023-03-27T17:54:01.227Z,4.80
2023-03-27T17:56:27.872Z,4.80
2023-03-27T17:58:55.905Z,4.80
2023-03-27T18:01:24.134Z,4.80
2023-03-27T18:03:51.514Z,4.80
2023-03-27T18:06:18.864Z,4.90
2023-03-27T18:08:46.696Z,4.90
2023-03-27T18:11:15.491Z,5.10
2023-03-27T18:13:42.516Z,5.00
2023-03-27T18:16:10.666Z,5.00
2023-03-27T18:18:39.021Z,5.00
2023-03-27T18:21:06.229Z,4.90
2023-03-27T18:23:34.839Z,4.90
2023-03-27T18:26:05.960Z,4.80
2023-03-27T18:28:32.990Z,4.80
2023-03-27T18:31:11.273Z,5.10
2023-03-27T18:33:38.105Z,5.00
2023-03-27T18:36:11.003Z,4.00
2023-03-27T18:38:39.992Z,4.80
2023-03-27T18:41:06.863Z,4.80
2023-03-27T18:43:33.845Z,4.80
2023-03-27T18:46:04.151Z,4.90
2023-03-27T18:48:31.099Z,4.80
2023-03-27T18:51:00.542Z,4.80
2023-03-27T18:53:28.114Z,4.80
2023-03-27T18:55:55.276Z,4.70
2023-03-27T18:58:26.684Z,4.70
2023-03-27T19:00:54.680Z,4.70
2023-03-27T19:03:23.322Z,4.70
2023-03-27T19:05:51.783Z,4.70
2023-03-27T19:08:19.749Z,4.70
2023-03-27T19:10:46.540Z,4.70
2023-03-27T19:13:13.194Z,4.70
2023-03-27T19:15:41.088Z,4.70
2023-03-27T19:18:08.128Z,4.60
2023-03-27T19:20:34.782Z,4.70
2023-03-27T19:23:01.518Z,4.10
2023-03-27T19:25:28.326Z,4.70
2023-03-27T19:27:55.099Z,4.70
2023-03-27T19:30:21.895Z,4.70
2023-03-27T19:32:50.132Z,4.70
2023-03-27T19:35:16.998Z,4.70
2023-03-27T19:37:43.626Z,4.80
2023-03-27T19:40:10.688Z,4.80
2023-03-27T19:42:37.372Z,3.60
2023-03-27T19:45:04.556Z,4.90
2023-03-27T19:47:31.434Z,4.90
2023-03-27T19:49:58.779Z,5.00
2023-03-27T19:52:26.199Z,5.00
2023-03-27T19:54:53.842Z,5.00
2023-03-27T19:57:20.873Z,5.00
2023-03-27T19:59:47.523Z,5.10
2023-03-27T20:02:14.316Z,5.20
2023-03-27T20:04:40.955Z,5.20
2023-03-27T20:07:07.714Z,5.20
2023-03-27T20:09:34.620Z,4.90
2023-03-27T20:12:01.370Z,4.80
2023-03-27T20:14:28.012Z,4.60
2023-03-27T20:16:54.646Z,4.50
2023-03-27T20:19:22.575Z,4.50
2023-03-27T20:21:49.192Z,4.50
2023-03-27T20:24:17.491Z,4.60
2023-03-27T20:26:48.165Z,4.60
2023-03-27T20:29:18.210Z,4.60
2023-03-27T20:31:44.959Z,4.70
2023-03-27T20:34:12.156Z,4.70
2023-03-27T20:36:39.275Z,4.70
2023-03-27T20:39:08.046Z,4.80
2023-03-27T20:41:38.866Z,4.90
2023-03-27T20:44:15.341Z,4.80
2023-03-27T20:46:47.383Z,4.90
2023-03-27T20:49:37.640Z,5.00
2023-03-27T20:52:12.706Z,5.00
2023-03-27T20:54:39.656Z,5.00
2023-03-27T20:57:06.383Z,4.90
2023-03-27T20:59:33.068Z,4.90
2023-03-27T21:02:00.537Z,4.90
2023-03-27T21:04:29.596Z,5.00
2023-03-27T21:06:56.285Z,4.80
2023-03-27T21:09:24.053Z,4.40
2023-03-27T21:11:51.030Z,4.10
2023-03-27T21:14:17.740Z,4.10
2023-03-27T21:16:44.452Z,3.90
2023-03-27T21:19:11.754Z,3.90
2023-03-27T21:21:39.093Z,3.80
2023-03-27T21:24:06.387Z,3.80
2023-03-27T21:26:33.602Z,3.90
2023-03-27T21:29:00.337Z,3.90
2023-03-27T21:31:27.105Z,4.00
2023-03-27T21:33:53.715Z,4.10
2023-03-27T21:36:20.642Z,4.10
2023-03-27T21:38:47.500Z,4.10
2023-03-27T21:41:15.897Z,4.20
2023-03-27T21:43:42.672Z,4.20
2023-03-27T21:46:09.462Z,4.20
2023-03-27T21:48:36.187Z,4.40
2023-03-27T21:51:05.605Z,4.30
2023-03-27T21:53:32.210Z,4.30
2023-03-27T21:55:59.176Z,4.40
2023-03-27T21:58:26.548Z,4.50
2023-03-27T22:00:57.239Z,4.40
2023-03-27T22:03:25.592Z,4.40
2023-03-27T22:06:07.836Z,4.50
2023-03-27T22:08:38.028Z,4.50
2023-03-27T22:11:05.011Z,4.60
2023-03-27T22:13:31.647Z,4.60
2023-03-27T22:15:58.721Z,4.60
2023-03-27T22:18:25.853Z,4.50
2023-03-27T22:20:52.576Z,4.40
2023-03-27T22:23:19.246Z,3.10
2023-03-27T22:25:53.800Z,4.10
2023-03-27T22:28:20.449Z,4.20
2023-03-27T22:30:47.162Z,4.40
2023-03-27T22:33:13.754Z,4.30
2023-03-27T22:35:46.831Z,4.30
2023-03-27T22:38:13.425Z,4.30
2023-03-27T22:40:40.130Z,4.30
2023-03-27T22:43:06.803Z,4.30
2023-03-27T22:45:35.593Z,4.20
2023-03-27T22:48:02.250Z,4.20
2023-03-27T22:50:28.892Z,4.30
2023-03-27T22:52:55.765Z,4.20
2023-03-27T22:55:22.398Z,4.30
2023-03-27T22:57:49.039Z,4.10
2023-03-27T23:00:16.309Z,3.90
2023-03-27T23:02:42.973Z,3.80
2023-03-27T23:05:09.804Z,3.90
2023-03-27T23:07:36.455Z,3.80
2023-03-27T23:10:03.178Z,3.70
2023-03-27T23:12:29.835Z,3.60
2023-03-27T23:14:56.435Z,3.60
2023-03-27T23:17:23.213Z,3.60
2023-03-27T23:19:49.912Z,3.60
2023-03-27T23:22:16.533Z,3.90
2023-03-27T23:24:43.135Z,3.70
2023-03-27T23:27:09.775Z,3.50
2023-03-27T23:29:36.377Z,3.50
2023-03-27T23:32:03.026Z,3.50
2023-03-27T23:34:29.774Z,3.50
2023-03-27T23:36:56.401Z,3.40
2023-03-27T23:39:23.064Z,3.50
2023-03-27T23:41:49.662Z,3.40
2023-03-27T23:44:16.294Z,3.50
2023-03-27T23:46:42.932Z,3.50
2023-03-27T23:49:12.708Z,3.50
2023-03-27T23:51:39.328Z,3.50
2023-03-27T23:54:05.992Z,3.40
2023-03-27T23:56:32.675Z,3.40
2023-03-27T23:58:59.314Z,3.40
